Time;durP1;ratioP1;P1;durP2;ratioP2;P2;SDS_P1;SDS_P2;PMS_P1;PMS_P2;Temp;Humidity;BMP_temperature;BMP_pressure;BME280_temperature;BME280_humidity;BME280_pressure;Samples;Min_cycle;Max_cycle;Signal;HPM_P1;HPM_P2
2021/04/16 00:02:24;;;;;;;2.23;1.30;;;;;;;;;;5119387;28;20452;-71
2021/04/16 00:04:51;;;;;;;2.03;1.27;;;;;;;;;;5120362;28;20813;-71
2021/04/16 00:07:18;;;;;;;2.70;1.40;;;;;;;;;;5120348;28;20455;-71
2021/04/16 00:09:50;;;;;;;2.63;1.47;;;;;;;;;;5119954;28;20859;-71
2021/04/16 00:12:27;;;;;;;3.10;1.13;;;;;;;;;;5120118;28;20551;-71
2021/04/16 00:15:00;;;;;;;2.20;1.37;;;;;;;;;;5120096;28;20903;-71
2021/04/16 00:17:32;;;;;;;2.63;1.40;;;;;;;;;;5120193;28;20467;-71
2021/04/16 00:20:02;;;;;;;2.57;1.13;;;;;;;;;;5119871;28;20455;-70
2021/04/16 00:22:41;;;;;;;3.00;1.37;;;;;;;;;;5119797;28;20490;-70
2021/04/16 00:25:11;;;;;;;3.23;1.47;;;;;;;;;;5120030;28;20617;-70
2021/04/16 00:27:48;;;;;;;3.13;1.60;;;;;;;;;;5119582;28;20851;-71
2021/04/16 00:30:20;;;;;;;2.60;1.47;;;;;;;;;;5119602;28;20843;-71
2021/04/16 00:32:49;;;;;;;2.57;1.13;;;;;;;;;;5118863;28;20458;-71
2021/04/16 00:35:18;;;;;;;2.20;1.10;;;;;;;;;;5118997;28;20479;-71
2021/04/16 00:37:54;;;;;;;3.53;1.57;;;;;;;;;;5119824;28;20754;-71
2021/04/16 00:40:44;;;;;;;3.20;1.40;;;;;;;;;;5119724;28;20546;-71
2021/04/16 00:43:45;;;;;;;2.50;1.00;;;;;;;;;;5119623;28;20454;-71
2021/04/16 00:46:21;;;;;;;2.30;1.60;;;;;;;;;;5119260;28;20451;-71
2021/04/16 00:48:49;;;;;;;2.97;1.47;;;;;;;;;;5119701;28;20447;-71
2021/04/16 00:51:19;;;;;;;2.63;1.40;;;;;;;;;;5119542;28;20456;-71
2021/04/16 00:53:51;;;;;;;4.57;1.43;;;;;;;;;;5119161;28;20534;-71
2021/04/16 00:56:18;;;;;;;5.67;1.30;;;;;;;;;;5119224;28;20475;-71
2021/04/16 00:58:47;;;;;;;3.23;1.30;;;;;;;;;;5119327;28;20451;-71
2021/04/16 01:01:15;;;;;;;2.73;1.33;;;;;;;;;;5119567;28;20456;-70
2021/04/16 01:03:43;;;;;;;2.30;1.00;;;;;;;;;;5119653;28;20443;-72
2021/04/16 01:06:12;;;;;;;3.53;1.87;;;;;;;;;;5119760;28;20451;-72
2021/04/16 01:08:41;;;;;;;3.10;1.20;;;;;;;;;;5119113;28;20443;-72
2021/04/16 01:11:12;;;;;;;2.37;1.10;;;;;;;;;;5119486;28;20446;-71
2021/04/16 01:13:40;;;;;;;2.17;0.90;;;;;;;;;;5118274;28;20500;-71
2021/04/16 01:16:12;;;;;;;5.20;1.50;;;;;;;;;;5118915;28;20555;-72
2021/04/16 01:18:42;;;;;;;1.87;1.00;;;;;;;;;;5110829;28;20615;-71
2021/04/16 01:21:10;;;;;;;2.77;1.40;;;;;;;;;;5098394;28;20917;-71
2021/04/16 01:23:43;;;;;;;1.93;0.93;;;;;;;;;;5113380;28;20520;-71
2021/04/16 01:26:13;;;;;;;2.13;1.00;;;;;;;;;;5119138;28;20754;-71
2021/04/16 01:28:41;;;;;;;2.67;1.20;;;;;;;;;;5118729;28;20469;-71
2021/04/16 01:31:11;;;;;;;2.30;1.20;;;;;;;;;;5117669;28;20464;-70
2021/04/16 01:33:39;;;;;;;2.87;1.30;;;;;;;;;;5118999;28;20506;-70
2021/04/16 01:36:07;;;;;;;2.30;1.10;;;;;;;;;;5118957;28;20888;-72
2021/04/16 01:38:36;;;;;;;3.63;1.67;;;;;;;;;;5118612;28;20467;-71
2021/04/16 01:41:03;;;;;;;1.97;1.10;;;;;;;;;;5118672;28;20516;-71
2021/04/16 01:43:33;;;;;;;3.37;1.60;;;;;;;;;;5107562;28;20543;-71
2021/04/16 01:46:02;;;;;;;2.50;1.10;;;;;;;;;;5118291;28;20470;-71
2021/04/16 01:48:36;;;;;;;2.10;0.90;;;;;;;;;;5118751;28;20455;-70
2021/04/16 01:51:04;;;;;;;2.33;1.10;;;;;;;;;;5104103;28;20519;-70
2021/04/16 01:53:32;;;;;;;3.80;1.30;;;;;;;;;;5113997;28;20459;-70
2021/04/16 01:56:00;;;;;;;5.03;1.97;;;;;;;;;;5118051;28;20483;-70
2021/04/16 01:58:27;;;;;;;3.00;1.30;;;;;;;;;;5118059;28;20451;-71
2021/04/16 02:00:56;;;;;;;3.90;1.17;;;;;;;;;;5117577;28;20750;-71
2021/04/16 02:03:24;;;;;;;2.57;1.10;;;;;;;;;;5118108;28;20454;-72
2021/04/16 02:05:52;;;;;;;3.80;1.37;;;;;;;;;;5118502;28;20452;-71
2021/04/16 02:08:20;;;;;;;1.70;1.10;;;;;;;;;;5118136;28;20455;-71
2021/04/16 02:10:48;;;;;;;3.50;1.20;;;;;;;;;;5114754;28;20447;-71
2021/04/16 02:13:17;;;;;;;2.07;1.10;;;;;;;;;;5117722;28;20886;-72
2021/04/16 02:15:46;;;;;;;3.10;1.67;;;;;;;;;;5117520;28;20475;-71
2021/04/16 02:18:15;;;;;;;1.80;1.00;;;;;;;;;;5117070;28;20811;-71
2021/04/16 02:20:43;;;;;;;5.10;1.43;;;;;;;;;;5097388;28;20452;-71
2021/04/16 02:23:11;;;;;;;1.50;0.87;;;;;;;;;;5108144;28;20550;-71
2021/04/16 02:25:38;;;;;;;2.40;1.03;;;;;;;;;;5117209;28;20447;-71
2021/04/16 02:28:06;;;;;;;3.07;0.93;;;;;;;;;;5117840;28;20450;-71
2021/04/16 02:30:35;;;;;;;3.27;1.10;;;;;;;;;;5117008;28;20843;-71
2021/04/16 02:33:06;;;;;;;3.37;1.20;;;;;;;;;;5117655;28;20871;-71
2021/04/16 02:35:35;;;;;;;2.37;1.10;;;;;;;;;;5117131;28;20886;-71
2021/04/16 02:38:02;;;;;;;5.50;1.30;;;;;;;;;;5117813;28;20455;-71
2021/04/16 02:40:31;;;;;;;2.87;1.20;;;;;;;;;;5117545;28;20474;-71
2021/04/16 02:42:59;;;;;;;2.27;1.43;;;;;;;;;;5117102;28;20463;-71
2021/04/16 02:45:28;;;;;;;3.13;1.90;;;;;;;;;;5112731;28;20889;-70
2021/04/16 02:47:56;;;;;;;2.00;1.20;;;;;;;;;;5116256;28;20538;-71
2021/04/16 02:50:26;;;;;;;3.93;1.70;;;;;;;;;;5116485;28;20727;-72
2021/04/16 02:52:55;;;;;;;3.10;1.40;;;;;;;;;;5117194;28;20454;-71
2021/04/16 02:55:25;;;;;;;11.50;1.50;;;;;;;;;;5116420;28;20482;-71
2021/04/16 02:57:54;;;;;;;1.97;1.20;;;;;;;;;;5117315;28;20458;-71
2021/04/16 03:00:24;;;;;;;3.33;1.40;;;;;;;;;;5117306;28;20443;-71
2021/04/16 03:02:56;;;;;;;4.70;1.60;;;;;;;;;;5117649;28;20702;-71
2021/04/16 03:05:24;;;;;;;3.30;2.40;;;;;;;;;;5117285;28;20443;-71
2021/04/16 03:07:53;;;;;;;3.70;1.53;;;;;;;;;;5116995;28;20455;-71
2021/04/16 03:10:23;;;;;;;2.93;1.30;;;;;;;;;;5117086;28;20694;-71
2021/04/16 03:12:50;;;;;;;3.50;1.40;;;;;;;;;;5116874;28;20459;-71
2021/04/16 03:15:30;;;;;;;1.90;1.20;;;;;;;;;;5116486;28;20913;-71
2021/04/16 03:17:59;;;;;;;2.00;1.40;;;;;;;;;;5115942;28;20447;-71
2021/04/16 03:20:27;;;;;;;3.17;1.67;;;;;;;;;;5116487;28;20742;-71
2021/04/16 03:22:55;;;;;;;3.60;1.53;;;;;;;;;;5116992;28;20515;-71
2021/04/16 03:25:28;;;;;;;2.80;1.23;;;;;;;;;;5116967;28;20482;-71
2021/04/16 03:27:58;;;;;;;2.20;1.20;;;;;;;;;;5116746;28;20451;-71
2021/04/16 03:30:33;;;;;;;2.27;1.00;;;;;;;;;;5117330;28;20463;-71
2021/04/16 03:33:01;;;;;;;6.37;1.97;;;;;;;;;;5116565;28;20526;-71
2021/04/16 03:35:31;;;;;;;6.70;2.20;;;;;;;;;;5116602;28;20494;-71
2021/04/16 03:38:02;;;;;;;2.80;1.20;;;;;;;;;;5116824;28;20502;-71
2021/04/16 03:40:32;;;;;;;4.10;1.60;;;;;;;;;;5116811;28;20462;-71
2021/04/16 03:43:00;;;;;;;4.40;1.80;;;;;;;;;;5116488;28;20486;-71
2021/04/16 03:45:29;;;;;;;6.43;1.57;;;;;;;;;;5116464;28;20534;-71
2021/04/16 03:47:58;;;;;;;2.13;1.10;;;;;;;;;;5117191;28;20455;-71
2021/04/16 03:50:27;;;;;;;4.93;1.20;;;;;;;;;;5116633;28;20458;-71
2021/04/16 03:52:55;;;;;;;2.30;1.77;;;;;;;;;;5116804;28;20447;-71
2021/04/16 03:55:35;;;;;;;2.97;1.37;;;;;;;;;;5116550;28;20975;-71
2021/04/16 03:58:05;;;;;;;5.17;1.33;;;;;;;;;;5115308;28;20451;-71
2021/04/16 04:01:09;;;;;;;10.27;1.87;;;;;;;;;;5115972;28;20494;-71
2021/04/16 04:03:37;;;;;;;4.10;1.40;;;;;;;;;;5098496;28;20470;-70
2021/04/16 04:06:05;;;;;;;2.03;1.27;;;;;;;;;;5117701;28;20780;-71
2021/04/16 04:08:33;;;;;;;6.47;1.47;;;;;;;;;;5120236;28;20531;-71
2021/04/16 04:11:00;;;;;;;4.80;1.33;;;;;;;;;;5120628;28;20515;-71
2021/04/16 04:13:29;;;;;;;8.07;1.60;;;;;;;;;;5120334;28;20490;-71
2021/04/16 04:15:59;;;;;;;3.00;1.63;;;;;;;;;;5120083;28;20514;-71
2021/04/16 04:18:27;;;;;;;5.97;1.47;;;;;;;;;;5120074;28;20466;-70
2021/04/16 04:20:55;;;;;;;3.70;1.50;;;;;;;;;;5119131;28;20471;-71
2021/04/16 04:23:23;;;;;;;2.27;1.10;;;;;;;;;;5120650;28;20541;-71
2021/04/16 04:25:51;;;;;;;5.80;2.00;;;;;;;;;;5112441;28;20530;-71
2021/04/16 04:28:19;;;;;;;4.43;1.53;;;;;;;;;;5119840;28;20508;-71
2021/04/16 04:30:48;;;;;;;5.90;2.47;;;;;;;;;;5119437;28;20465;-71
2021/04/16 04:33:17;;;;;;;5.93;1.93;;;;;;;;;;5119395;28;20456;-71
2021/04/16 04:35:44;;;;;;;7.00;2.67;;;;;;;;;;5119553;28;20837;-71
2021/04/16 04:38:13;;;;;;;4.97;2.13;;;;;;;;;;5120239;28;20447;-72
2021/04/16 04:40:41;;;;;;;3.30;1.37;;;;;;;;;;5118718;28;20431;-71
2021/04/16 04:43:10;;;;;;;4.17;1.60;;;;;;;;;;5116578;28;20443;-71
2021/04/16 04:45:40;;;;;;;3.40;1.80;;;;;;;;;;5118787;28;20920;-71
2021/04/16 04:48:09;;;;;;;4.80;1.90;;;;;;;;;;5118488;28;20741;-71
2021/04/16 04:50:39;;;;;;;4.50;1.40;;;;;;;;;;5118127;28;20447;-70
2021/04/16 04:53:06;;;;;;;5.07;1.93;;;;;;;;;;5118976;28;20883;-71
2021/04/16 04:55:35;;;;;;;2.53;1.67;;;;;;;;;;5118395;28;20549;-71
2021/04/16 04:58:03;;;;;;;4.30;1.37;;;;;;;;;;5118805;28;20451;-71
2021/04/16 05:00:32;;;;;;;8.00;2.03;;;;;;;;;;5118680;28;20466;-71
2021/04/16 05:02:59;;;;;;;5.63;2.00;;;;;;;;;;5118503;28;20447;-71
2021/04/16 05:05:29;;;;;;;4.97;1.63;;;;;;;;;;5118347;28;20911;-71
2021/04/16 05:07:56;;;;;;;7.90;2.17;;;;;;;;;;5118226;28;20859;-71
2021/04/16 05:10:24;;;;;;;3.20;1.30;;;;;;;;;;5117662;28;20493;-71
2021/04/16 05:12:53;;;;;;;5.53;2.40;;;;;;;;;;5118446;28;20451;-71
2021/04/16 05:15:26;;;;;;;9.70;1.90;;;;;;;;;;5117418;28;20456;-71
2021/04/16 05:17:54;;;;;;;9.30;2.03;;;;;;;;;;5116681;28;20520;-71
2021/04/16 05:20:23;;;;;;;2.50;1.43;;;;;;;;;;5117359;28;20469;-71
2021/04/16 05:22:51;;;;;;;4.40;2.67;;;;;;;;;;5117605;28;20933;-71
2021/04/16 05:25:22;;;;;;;4.17;2.30;;;;;;;;;;5116783;28;20459;-71
2021/04/16 05:27:50;;;;;;;4.50;2.70;;;;;;;;;;5115881;28;20486;-71
2021/04/16 05:30:18;;;;;;;4.80;2.13;;;;;;;;;;5115540;28;20840;-71
2021/04/16 05:32:47;;;;;;;3.47;1.80;;;;;;;;;;5115444;28;20950;-71
2021/04/16 05:35:15;;;;;;;5.00;1.97;;;;;;;;;;5114604;28;20474;-71
2021/04/16 05:37:43;;;;;;;4.53;2.23;;;;;;;;;;5115377;28;20454;-71
2021/04/16 05:40:12;;;;;;;7.20;2.63;;;;;;;;;;5114717;28;20465;-71
2021/04/16 05:42:40;;;;;;;3.53;2.13;;;;;;;;;;5115025;28;20454;-71
2021/04/16 05:45:08;;;;;;;6.37;4.07;;;;;;;;;;5114741;28;20459;-71
2021/04/16 05:47:36;;;;;;;11.53;2.67;;;;;;;;;;5115371;28;20458;-71
2021/04/16 05:50:05;;;;;;;6.27;2.40;;;;;;;;;;5114894;28;20451;-70
2021/04/16 05:52:32;;;;;;;3.30;2.00;;;;;;;;;;5116004;28;20448;-72
2021/04/16 05:55:00;;;;;;;6.87;4.10;;;;;;;;;;5114776;28;20463;-70
2021/04/16 05:57:29;;;;;;;4.30;2.60;;;;;;;;;;5115646;28;20491;-70
2021/04/16 05:59:56;;;;;;;5.50;2.27;;;;;;;;;;5115346;28;20890;-70
2021/04/16 06:02:25;;;;;;;4.23;2.53;;;;;;;;;;5116061;28;20471;-70
2021/04/16 06:04:53;;;;;;;8.30;2.40;;;;;;;;;;5111549;28;20600;-70
2021/04/16 06:07:22;;;;;;;4.97;2.87;;;;;;;;;;5116770;28;20440;-71
2021/04/16 06:09:50;;;;;;;5.23;2.50;;;;;;;;;;5116984;28;20447;-71
2021/04/16 06:12:18;;;;;;;6.97;2.77;;;;;;;;;;5116579;28;20443;-71
2021/04/16 06:14:49;;;;;;;6.43;2.80;;;;;;;;;;5116527;28;20455;-71
2021/04/16 06:17:18;;;;;;;8.00;2.13;;;;;;;;;;5115930;28;20489;-70
2021/04/16 06:19:48;;;;;;;4.93;2.83;;;;;;;;;;5116020;28;20694;-71
2021/04/16 06:22:17;;;;;;;7.10;3.50;;;;;;;;;;5116092;28;20451;-70
2021/04/16 06:24:44;;;;;;;9.57;3.53;;;;;;;;;;5116758;28;20898;-70
2021/04/16 06:27:12;;;;;;;6.87;2.93;;;;;;;;;;5114980;28;20652;-70
2021/04/16 06:29:39;;;;;;;3.70;2.80;;;;;;;;;;5112587;28;20551;-70
2021/04/16 06:32:09;;;;;;;6.70;3.47;;;;;;;;;;5114092;28;20847;-70
2021/04/16 06:34:39;;;;;;;7.60;4.37;;;;;;;;;;5114154;28;20463;-70
2021/04/16 06:37:08;;;;;;;6.57;3.60;;;;;;;;;;5115403;28;20764;-70
2021/04/16 06:39:36;;;;;;;7.20;3.37;;;;;;;;;;5116198;28;20447;-70
2021/04/16 06:42:06;;;;;;;5.83;3.23;;;;;;;;;;5115836;28;20747;-70
2021/04/16 06:44:35;;;;;;;5.10;2.90;;;;;;;;;;5114795;27;20557;-70
2021/04/16 06:47:06;;;;;;;4.97;3.30;;;;;;;;;;5115254;28;20471;-69
2021/04/16 06:49:35;;;;;;;5.57;2.80;;;;;;;;;;5115468;28;20454;-70
2021/04/16 06:52:04;;;;;;;7.03;3.40;;;;;;;;;;5114923;27;20448;-70
2021/04/16 06:54:38;;;;;;;7.07;3.30;;;;;;;;;;5113612;28;20485;-69
2021/04/16 06:57:14;;;;;;;8.60;3.13;;;;;;;;;;5115289;28;20508;-71
2021/04/16 06:59:47;;;;;;;6.90;2.80;;;;;;;;;;5100799;28;20531;-70
2021/04/16 07:02:18;;;;;;;6.20;2.90;;;;;;;;;;5095060;28;20458;-70
2021/04/16 07:04:50;;;;;;;4.83;2.00;;;;;;;;;;5096153;28;20456;-70
2021/04/16 07:07:22;;;;;;;4.50;2.80;;;;;;;;;;5095590;28;20449;-72
2021/04/16 07:09:54;;;;;;;4.23;2.20;;;;;;;;;;5095768;28;20894;-71
2021/04/16 07:12:22;;;;;;;5.30;3.63;;;;;;;;;;5095990;28;20462;-71
2021/04/16 07:14:54;;;;;;;5.70;3.33;;;;;;;;;;5095506;28;20866;-70
2021/04/16 07:17:22;;;;;;;5.00;2.83;;;;;;;;;;5130538;28;20478;-70
2021/04/16 07:19:52;;;;;;;7.20;2.17;;;;;;;;;;5137203;28;20486;-70
2021/04/16 07:22:21;;;;;;;7.00;2.10;;;;;;;;;;5138717;28;20989;-68
2021/04/16 07:24:49;;;;;;;6.27;1.77;;;;;;;;;;5137425;28;20447;-70
2021/04/16 07:27:20;;;;;;;3.20;1.60;;;;;;;;;;5136511;28;20434;-69
2021/04/16 07:29:52;;;;;;;4.73;2.27;;;;;;;;;;5136157;28;20865;-69
2021/04/16 07:32:39;;;;;;;2.33;1.50;;;;;;;;;;5135921;28;20479;-69
2021/04/16 07:35:25;;;;;;;3.33;1.40;;;;;;;;;;5130758;28;20547;-70
2021/04/16 07:38:06;;;;;;;5.80;1.70;;;;;;;;;;5113757;28;20847;-71
2021/04/16 07:40:35;;;;;;;2.13;1.33;;;;;;;;;;5116417;28;20796;-69
2021/04/16 07:43:03;;;;;;;3.10;1.60;;;;;;;;;;5121569;28;20525;-69
2021/04/16 07:45:39;;;;;;;1.97;1.20;;;;;;;;;;5125844;27;20449;-70
2021/04/16 07:48:17;;;;;;;3.03;1.30;;;;;;;;;;5117365;28;20699;-70
2021/04/16 07:50:46;;;;;;;2.60;1.53;;;;;;;;;;5115898;28;20485;-70
2021/04/16 07:53:26;;;;;;;2.63;1.37;;;;;;;;;;5098479;28;20448;-70
2021/04/16 07:56:04;;;;;;;3.53;1.80;;;;;;;;;;5098540;28;20829;-70
2021/04/16 07:58:33;;;;;;;3.07;1.30;;;;;;;;;;5103293;28;20451;-70
2021/04/16 08:01:10;;;;;;;4.17;1.60;;;;;;;;;;5118771;28;20878;-70
2021/04/16 08:03:53;;;;;;;3.73;1.43;;;;;;;;;;5119197;28;20918;-70
2021/04/16 08:06:30;;;;;;;4.10;1.70;;;;;;;;;;5120832;28;20481;-69
2021/04/16 08:08:58;;;;;;;3.10;1.57;;;;;;;;;;5121103;28;20545;-70
2021/04/16 08:11:27;;;;;;;2.90;1.53;;;;;;;;;;5119961;28;20455;-70
2021/04/16 08:14:03;;;;;;;4.17;2.03;;;;;;;;;;5117845;28;20958;-70
2021/04/16 08:16:32;;;;;;;3.90;1.93;;;;;;;;;;5118682;28;20526;-69
2021/04/16 08:19:23;;;;;;;2.27;1.33;;;;;;;;;;5117585;28;20859;-70
2021/04/16 08:22:15;;;;;;;3.80;1.47;;;;;;;;;;5088932;27;20475;-70
2021/04/16 08:24:48;;;;;;;2.73;1.47;;;;;;;;;;5113623;28;20465;-71
2021/04/16 08:27:30;;;;;;;3.57;1.73;;;;;;;;;;5113391;28;20559;-70
2021/04/16 08:30:03;;;;;;;5.40;1.97;;;;;;;;;;5106917;28;21097;-70
2021/04/16 08:32:34;;;;;;;5.13;2.23;;;;;;;;;;5107870;28;20463;-71
2021/04/16 08:35:06;;;;;;;3.00;1.67;;;;;;;;;;5107115;28;20473;-70
2021/04/16 08:37:49;;;;;;;2.87;1.63;;;;;;;;;;5112588;28;20572;-69
2021/04/16 08:40:21;;;;;;;7.20;2.17;;;;;;;;;;5102580;28;20617;-70
2021/04/16 08:42:48;;;;;;;2.83;1.50;;;;;;;;;;5118511;28;20451;-70
2021/04/16 08:45:22;;;;;;;3.53;1.67;;;;;;;;;;5116207;28;20462;-71
2021/04/16 08:47:57;;;;;;;6.43;1.83;;;;;;;;;;5111463;28;20849;-70
2021/04/16 08:50:44;;;;;;;2.60;1.60;;;;;;;;;;5117052;28;20781;-70
2021/04/16 08:53:13;;;;;;;4.03;1.80;;;;;;;;;;5116412;28;20443;-70
2021/04/16 08:55:48;;;;;;;2.90;2.00;;;;;;;;;;5116430;28;20459;-71
2021/04/16 08:58:50;;;;;;;6.37;1.53;;;;;;;;;;5115942;28;20862;-71
2021/04/16 09:01:33;;;;;;;3.17;1.80;;;;;;;;;;5104382;28;20462;-71
2021/04/16 09:04:17;;;;;;;3.90;2.03;;;;;;;;;;5113388;28;20454;-72
2021/04/16 09:06:53;;;;;;;4.30;1.50;;;;;;;;;;5096813;28;20505;-71
2021/04/16 09:09:39;;;;;;;3.30;1.53;;;;;;;;;;5100360;28;20852;-69
2021/04/16 09:12:09;;;;;;;2.20;1.50;;;;;;;;;;5097608;28;20602;-70
2021/04/16 09:14:56;;;;;;;2.80;1.40;;;;;;;;;;5097663;28;20452;-70
2021/04/16 09:17:38;;;;;;;2.70;1.23;;;;;;;;;;5097474;28;20494;-70
2021/04/16 09:20:07;;;;;;;2.00;1.30;;;;;;;;;;5111065;28;20479;-72
2021/04/16 09:22:42;;;;;;;2.53;1.20;;;;;;;;;;5116782;28;20474;-70
2021/04/16 09:25:24;;;;;;;2.33;1.83;;;;;;;;;;5116667;28;20435;-72
2021/04/16 09:27:53;;;;;;;2.67;0.90;;;;;;;;;;5115693;28;20443;-71
2021/04/16 09:30:22;;;;;;;1.83;1.00;;;;;;;;;;5116020;28;20723;-71
2021/04/16 09:32:50;;;;;;;2.77;0.90;;;;;;;;;;5117750;28;20458;-71
2021/04/16 09:35:33;;;;;;;3.03;1.30;;;;;;;;;;5118798;28;20455;-71
2021/04/16 09:38:19;;;;;;;1.30;0.80;;;;;;;;;;5094499;27;20479;-70
2021/04/16 09:41:07;;;;;;;2.10;1.10;;;;;;;;;;5108376;28;20738;-69
2021/04/16 09:43:36;;;;;;;1.50;0.70;;;;;;;;;;5097237;28;20467;-70
2021/04/16 09:46:24;;;;;;;2.70;1.00;;;;;;;;;;5097810;28;20448;-70
2021/04/16 09:48:55;;;;;;;1.33;0.60;;;;;;;;;;5104090;28;21192;-69
2021/04/16 09:51:33;;;;;;;1.80;0.90;;;;;;;;;;5115805;28;20459;-70
2021/04/16 09:54:18;;;;;;;2.17;1.10;;;;;;;;;;5116080;28;20905;-72
2021/04/16 09:57:01;;;;;;;3.60;1.80;;;;;;;;;;5112197;28;20476;-71
2021/04/16 09:59:31;;;;;;;2.23;1.07;;;;;;;;;;5102831;28;20739;-72
2021/04/16 10:02:25;;;;;;;1.40;0.80;;;;;;;;;;5113765;28;20454;-69
2021/04/16 10:04:58;;;;;;;3.43;1.67;;;;;;;;;;5097064;28;20460;-71
2021/04/16 10:07:36;;;;;;;3.60;0.90;;;;;;;;;;5096155;28;20453;-71
2021/04/16 10:10:06;;;;;;;2.20;0.90;;;;;;;;;;5111228;28;20469;-70
2021/04/16 10:12:34;;;;;;;2.23;1.10;;;;;;;;;;5118081;28;20473;-70
2021/04/16 10:15:16;;;;;;;1.80;1.10;;;;;;;;;;5116303;28;20508;-69
2021/04/16 10:17:59;;;;;;;1.83;1.13;;;;;;;;;;5107491;28;20573;-71
2021/04/16 10:20:28;;;;;;;2.17;1.53;;;;;;;;;;5115712;28;20762;-70
2021/04/16 10:23:04;;;;;;;1.67;0.90;;;;;;;;;;5115666;28;20463;-71
2021/04/16 12:38:46;;;;;;;1.73;0.70;;;;;;;;;;5037667;28;20446;-71
2021/04/16 12:41:15;;;;;;;2.73;0.90;;;;;;;;;;5037881;28;20574;-72
2021/04/16 12:43:45;;;;;;;1.30;0.60;;;;;;;;;;5040837;28;20492;-72
2021/04/16 12:46:16;;;;;;;1.53;0.80;;;;;;;;;;5037043;28;20489;-69
2021/04/16 12:48:44;;;;;;;2.83;0.73;;;;;;;;;;5038664;28;20454;-70
2021/04/16 12:51:12;;;;;;;1.90;0.90;;;;;;;;;;5039487;28;20463;-71
2021/04/16 12:53:40;;;;;;;2.27;0.80;;;;;;;;;;5037013;28;20457;-72
2021/04/16 12:56:09;;;;;;;2.27;0.80;;;;;;;;;;5038585;28;20470;-72
2021/04/16 12:58:38;;;;;;;1.37;0.70;;;;;;;;;;5037404;28;20619;-71
2021/04/16 13:01:08;;;;;;;2.73;0.90;;;;;;;;;;5035408;28;20937;-71
2021/04/16 13:03:41;;;;;;;2.00;0.80;;;;;;;;;;5038225;28;20462;-73
2021/04/16 13:06:12;;;;;;;2.70;0.87;;;;;;;;;;5037069;28;20473;-71
2021/04/16 13:08:40;;;;;;;1.90;0.80;;;;;;;;;;5036712;28;20521;-71
2021/04/16 13:11:07;;;;;;;3.23;1.17;;;;;;;;;;5036087;28;20945;-71
2021/04/16 13:13:35;;;;;;;6.20;1.10;;;;;;;;;;5035719;28;20536;-71
2021/04/16 13:16:03;;;;;;;4.00;0.90;;;;;;;;;;5035967;28;20455;-71
2021/04/16 13:18:32;;;;;;;3.43;0.97;;;;;;;;;;5037548;28;20451;-71
2021/04/16 13:21:24;;;;;;;2.53;0.77;;;;;;;;;;5037773;28;20469;-73
2021/04/16 13:23:54;;;;;;;2.50;0.87;;;;;;;;;;5036121;28;20490;-71
2021/04/16 13:26:21;;;;;;;7.03;1.70;;;;;;;;;;5036177;28;20697;-70
2021/04/16 13:28:51;;;;;;;2.07;0.90;;;;;;;;;;5036770;28;20874;-73
2021/04/16 13:31:19;;;;;;;4.10;1.20;;;;;;;;;;5036433;28;20458;-71
2021/04/16 13:33:48;;;;;;;1.83;0.97;;;;;;;;;;5036651;28;20454;-71
2021/04/16 13:36:18;;;;;;;1.80;0.90;;;;;;;;;;5035810;28;20577;-71
2021/04/16 13:38:46;;;;;;;2.07;0.70;;;;;;;;;;5033852;28;20558;-71
2021/04/16 13:41:15;;;;;;;1.87;0.90;;;;;;;;;;5035651;28;20836;-71
2021/04/16 13:43:43;;;;;;;2.43;0.87;;;;;;;;;;5036699;28;20466;-71
2021/04/16 13:46:48;;;;;;;1.90;1.00;;;;;;;;;;5036719;28;20475;-71
2021/04/16 13:49:19;;;;;;;2.50;1.10;;;;;;;;;;5023364;28;20460;-71
2021/04/16 13:51:51;;;;;;;4.30;1.40;;;;;;;;;;5016580;28;20502;-71
2021/04/16 13:54:21;;;;;;;2.37;1.30;;;;;;;;;;5023390;28;20476;-71
2021/04/16 13:56:52;;;;;;;2.43;1.10;;;;;;;;;;5032301;28;20729;-71
2021/04/16 13:59:19;;;;;;;1.50;0.87;;;;;;;;;;5038110;28;20451;-70
2021/04/16 14:01:47;;;;;;;2.23;1.00;;;;;;;;;;5038025;28;20553;-71
2021/04/16 14:04:18;;;;;;;2.93;1.00;;;;;;;;;;5034786;28;20455;-71
2021/04/16 14:06:45;;;;;;;9.00;1.20;;;;;;;;;;5035669;28;20498;-71
2021/04/16 14:09:16;;;;;;;2.23;1.07;;;;;;;;;;5036537;28;20486;-71
2021/04/16 14:11:44;;;;;;;2.20;1.07;;;;;;;;;;5036532;28;20836;-72
2021/04/16 14:14:17;;;;;;;2.37;1.20;;;;;;;;;;5036418;28;20765;-72
2021/04/16 14:16:48;;;;;;;2.67;1.13;;;;;;;;;;5036029;28;20516;-70
2021/04/16 14:19:17;;;;;;;2.43;1.03;;;;;;;;;;5036339;28;20455;-72
2021/04/16 14:21:45;;;;;;;1.90;1.00;;;;;;;;;;5035220;28;20463;-71
2021/04/16 14:24:15;;;;;;;3.10;0.83;;;;;;;;;;5037580;28;20455;-71
2021/04/16 14:26:43;;;;;;;3.80;1.47;;;;;;;;;;5035595;28;20562;-71
2021/04/16 14:29:10;;;;;;;7.70;1.60;;;;;;;;;;5037625;28;20525;-72
2021/04/16 14:31:43;;;;;;;6.93;1.10;;;;;;;;;;5036806;28;20463;-70
2021/04/16 14:34:32;;;;;;;4.87;1.27;;;;;;;;;;5035708;28;20465;-71
2021/04/16 14:37:01;;;;;;;3.90;1.10;;;;;;;;;;5018131;28;20530;-71
2021/04/16 14:39:31;;;;;;;4.90;1.57;;;;;;;;;;5018043;28;20447;-73
2021/04/16 14:42:00;;;;;;;4.00;1.03;;;;;;;;;;5018677;28;20516;-72
2021/04/16 14:44:28;;;;;;;2.00;1.30;;;;;;;;;;5035618;28;20459;-72
2021/04/16 14:46:56;;;;;;;2.50;1.00;;;;;;;;;;5037233;28;20458;-72
2021/04/16 14:49:27;;;;;;;4.20;0.87;;;;;;;;;;5035118;28;20886;-72
2021/04/16 14:51:55;;;;;;;1.53;0.90;;;;;;;;;;5036448;28;20520;-71
2021/04/16 14:54:36;;;;;;;2.53;0.97;;;;;;;;;;5035385;28;20447;-72
2021/04/16 14:57:24;;;;;;;2.70;1.20;;;;;;;;;;5035741;28;20479;-73
2021/04/16 14:59:55;;;;;;;2.00;1.13;;;;;;;;;;5036863;28;20447;-72
2021/04/16 15:02:31;;;;;;;1.70;0.87;;;;;;;;;;5034646;28;20529;-72
2021/04/16 15:05:18;;;;;;;2.27;1.10;;;;;;;;;;5035472;28;20886;-73
2021/04/16 15:08:03;;;;;;;2.93;1.53;;;;;;;;;;5035772;28;20501;-72
2021/04/16 15:10:40;;;;;;;2.00;0.97;;;;;;;;;;5035855;28;20470;-71
2021/04/16 15:13:30;;;;;;;1.50;0.93;;;;;;;;;;5022201;28;20782;-71
2021/04/16 15:16:10;;;;;;;2.80;1.33;;;;;;;;;;5036804;28;20518;-71
2021/04/16 15:18:51;;;;;;;2.27;1.57;;;;;;;;;;5036559;28;20455;-72
2021/04/16 15:21:19;;;;;;;4.10;1.00;;;;;;;;;;5015973;28;20463;-71
2021/04/16 15:23:53;;;;;;;3.50;1.30;;;;;;;;;;5016472;28;21073;-72
2021/04/16 15:26:23;;;;;;;3.30;1.30;;;;;;;;;;5015283;28;20464;-72
2021/04/16 15:29:08;;;;;;;2.33;1.10;;;;;;;;;;5014987;28;20667;-73
2021/04/16 15:31:42;;;;;;;3.10;1.13;;;;;;;;;;5020168;28;20804;-70
2021/04/16 15:48:19;;;;;;;6.53;1.47;;;;;;;;;;5035258;28;20423;-70
2021/04/16 15:50:51;;;;;;;3.67;1.50;;;;;;;;;;5034291;28;20485;-72
2021/04/16 15:53:26;;;;;;;3.50;1.47;;;;;;;;;;5036711;28;20446;-71
2021/04/16 15:55:54;;;;;;;2.67;1.30;;;;;;;;;;5034382;28;20890;-70
2021/04/16 15:58:29;;;;;;;3.03;1.70;;;;;;;;;;5016889;28;20494;-72
2021/04/16 16:01:11;;;;;;;4.40;1.60;;;;;;;;;;5015203;28;20554;-71
2021/04/16 16:03:57;;;;;;;3.23;1.80;;;;;;;;;;5036731;28;20462;-71
2021/04/16 16:06:40;;;;;;;12.00;1.60;;;;;;;;;;5032319;28;20464;-71
2021/04/16 16:09:38;;;;;;;2.50;1.07;;;;;;;;;;5040249;28;20455;-72
2021/04/16 16:12:21;;;;;;;3.60;1.53;;;;;;;;;;5040176;28;20878;-73
2021/04/16 16:17:54;;;;;;;5.63;1.50;;;;;;;;;;5039635;28;20551;-71
2021/04/16 16:20:23;;;;;;;1.60;0.90;;;;;;;;;;5038967;28;20450;-72
2021/04/16 16:22:51;;;;;;;2.90;1.23;;;;;;;;;;5036972;28;20740;-72
2021/04/16 16:25:20;;;;;;;3.47;1.47;;;;;;;;;;5039341;28;20451;-72
2021/04/16 16:27:47;;;;;;;4.17;1.30;;;;;;;;;;5036902;28;20532;-71
2021/04/16 16:30:17;;;;;;;1.87;1.00;;;;;;;;;;5036764;28;20490;-71
2021/04/16 16:32:45;;;;;;;3.53;1.40;;;;;;;;;;5038415;28;20470;-71
2021/04/16 16:35:15;;;;;;;3.70;1.60;;;;;;;;;;5038367;28;20458;-71
2021/04/16 16:37:43;;;;;;;2.53;1.60;;;;;;;;;;5039412;28;20486;-71
2021/04/16 16:40:13;;;;;;;4.23;1.43;;;;;;;;;;5038525;28;20728;-71
2021/04/16 16:42:44;;;;;;;3.60;2.10;;;;;;;;;;5037738;28;20545;-72
2021/04/16 16:45:16;;;;;;;4.07;1.90;;;;;;;;;;5038346;28;20477;-72
2021/04/16 16:47:44;;;;;;;2.53;1.10;;;;;;;;;;5038408;28;20795;-71
2021/04/16 16:50:12;;;;;;;2.30;1.30;;;;;;;;;;5039494;28;20532;-70
2021/04/16 16:52:40;;;;;;;3.53;1.70;;;;;;;;;;5038462;28;20463;-72
2021/04/16 16:55:08;;;;;;;2.50;1.40;;;;;;;;;;5038422;28;20454;-72
2021/04/16 16:57:35;;;;;;;4.03;2.10;;;;;;;;;;5038126;28;20589;-71
2021/04/16 17:00:03;;;;;;;3.87;2.07;;;;;;;;;;5038367;28;20520;-71
2021/04/16 17:02:46;;;;;;;4.23;1.53;;;;;;;;;;5038804;28;20966;-71
2021/04/16 17:05:14;;;;;;;4.13;1.43;;;;;;;;;;5039188;28;20446;-72
2021/04/16 17:07:42;;;;;;;2.63;1.53;;;;;;;;;;5039364;28;20557;-71
2021/04/16 17:10:12;;;;;;;4.13;1.53;;;;;;;;;;5039290;28;20451;-72
2021/04/16 17:12:40;;;;;;;3.70;1.80;;;;;;;;;;5039105;28;20989;-71
2021/04/16 17:15:09;;;;;;;3.30;1.20;;;;;;;;;;5038789;28;20455;-71
2021/04/16 17:17:36;;;;;;;2.80;1.40;;;;;;;;;;5038729;28;20736;-71
2021/04/16 17:20:04;;;;;;;3.20;1.40;;;;;;;;;;5038368;28;20874;-71
2021/04/16 17:22:31;;;;;;;3.40;1.70;;;;;;;;;;5038200;28;20495;-69
2021/04/16 17:25:00;;;;;;;2.83;1.00;;;;;;;;;;5039544;28;20871;-70
2021/04/16 17:27:33;;;;;;;2.60;1.23;;;;;;;;;;5028415;28;20752;-72
2021/04/16 17:30:03;;;;;;;3.33;1.30;;;;;;;;;;5018518;28;20550;-71
2021/04/16 17:32:31;;;;;;;3.90;1.30;;;;;;;;;;5018449;28;20529;-72
2021/04/16 17:34:59;;;;;;;2.57;1.20;;;;;;;;;;5018610;28;20451;-70
2021/04/16 17:37:31;;;;;;;2.13;1.20;;;;;;;;;;5016990;28;20491;-71
2021/04/16 17:40:01;;;;;;;2.23;1.47;;;;;;;;;;5021185;28;20741;-70
2021/04/16 17:42:30;;;;;;;2.00;0.90;;;;;;;;;;5026616;28;20462;-72